Terminal Aerodrome Forecast
Issued by NWS Cleveland, OH

Home | Current Version | Previous Version | Text Only | Print | Product List | Glossary On
Versions: 1 2 3 4 5 6 7 8 9 10 11 12 13 14 15 16 17 18
000
FTUS41 KCLE 251100
TAFYNG
TAF
KYNG 251120Z 2512/2612 VRB04KT P6SM VCSH OVC050
     FM251600 07008KT P6SM BKN050 OVC100
     FM260000 03006KT P6SM BKN050 OVC100
     FM260300 03006KT P6SM SCT050 BKN100
     FM260600 03006KT P6SM BKN120 OVC250
     FM260800 03006KT P6SM SCT120 BKN250=

USA.gov is the U.S. government's official web portal to all federal, state and local government web resources and services.